createdAt,value
2022-08-11T00:01:51.330Z,17.6
2022-08-11T00:07:20.868Z,17.5
2022-08-11T00:12:59.505Z,17.5
2022-08-11T00:18:45.606Z,17.4
2022-08-11T00:24:07.984Z,17.4
2022-08-11T00:29:59.971Z,17.5
2022-08-11T00:35:50.099Z,17.3
2022-08-11T00:41:07.610Z,17.2
2022-08-11T00:46:18.914Z,17.3
2022-08-11T00:51:56.786Z,17.5
2022-08-11T00:57:53.110Z,17.5
2022-08-11T01:03:12.594Z,17.1
2022-08-11T01:08:45.562Z,16.7
2022-08-11T01:14:33.789Z,16.5
2022-08-11T01:20:38.675Z,16.6
2022-08-11T01:25:56.566Z,17
2022-08-11T01:31:14.306Z,16.6
2022-08-11T01:36:43.625Z,16.6
2022-08-11T01:42:22.118Z,16.7
2022-08-11T01:47:52.786Z,16.9
2022-08-11T01:53:37.405Z,16.7
2022-08-11T02:04:27.593Z,17.8
2022-08-11T02:10:03.317Z,17.5
2022-08-11T02:15:52.239Z,17.7
2022-08-11T02:21:40.046Z,17.9
2022-08-11T02:27:07.652Z,17.6
2022-08-11T02:32:46.583Z,17.4
2022-08-11T02:38:22.054Z,17.5
2022-08-11T02:43:57.370Z,17.1
2022-08-11T02:49:12.314Z,17.3
2022-08-11T02:54:56.344Z,17.2
2022-08-11T03:00:44.042Z,17.3
2022-08-11T03:06:17.352Z,17.4
2022-08-11T03:11:43.538Z,17.3
2022-08-11T03:17:10.373Z,17.2
2022-08-11T03:23:19.574Z,16.9
2022-08-11T03:28:18.308Z,17.1
2022-08-11T03:34:07.764Z,17.1
2022-08-11T03:39:56.514Z,17.3
2022-08-11T03:45:07.651Z,17.2
2022-08-11T03:50:55.105Z,17.1
2022-08-11T03:56:36.806Z,16.7
2022-08-11T04:02:13.918Z,16.5
2022-08-11T04:07:50.424Z,16.4
2022-08-11T04:13:24.517Z,16.7
2022-08-11T04:18:54.867Z,16.6
2022-08-11T04:24:37.297Z,16.6
2022-08-11T04:30:13.295Z,16.4
2022-08-11T04:35:35.537Z,16.3
2022-08-11T04:41:18.680Z,16.6
2022-08-11T04:46:49.246Z,16.5
2022-08-11T04:52:16.573Z,16.5
2022-08-11T04:58:09.388Z,17
2022-08-11T05:03:43.874Z,16.7
2022-08-11T05:09:18.473Z,16.7
2022-08-11T05:14:40.323Z,16.6
2022-08-11T05:20:02.758Z,16.8
2022-08-11T05:26:42.702Z,17.3
2022-08-11T05:31:25.235Z,17.4
2022-08-11T05:37:26.581Z,18.3
2022-08-11T05:42:29.406Z,18.6
2022-08-11T05:48:22.882Z,18.8
2022-08-11T05:53:46.002Z,19
2022-08-11T05:59:11.063Z,19.4
2022-08-11T06:05:02.095Z,20.3
2022-08-11T06:10:39.630Z,20.2
2022-08-11T06:16:06.778Z,20.4
2022-08-11T06:21:46.888Z,19.8
2022-08-11T06:27:24.552Z,19.8
2022-08-11T06:32:50.137Z,19.9
2022-08-11T06:38:42.341Z,19.9
2022-08-11T06:44:00.887Z,20
2022-08-11T06:49:36.396Z,19.6
2022-08-11T06:55:55.305Z,19.9
2022-08-11T07:01:09.953Z,20
2022-08-11T08:20:13.439Z,22.3
2022-08-11T08:25:34.965Z,22.2
2022-08-11T08:48:24.863Z,22.9
2022-08-11T08:53:49.945Z,23
2022-08-11T09:05:23.930Z,23.2
2022-08-11T09:50:14.825Z,24.6
2022-08-11T09:56:10.821Z,24.5
2022-08-11T10:13:43.655Z,25.1
2022-08-11T10:18:53.531Z,25.2
2022-08-11T10:24:32.745Z,25.4
2022-08-11T10:30:05.774Z,26.2
2022-08-11T10:41:12.596Z,25.8
2022-08-11T10:47:12.727Z,25.9
2022-08-11T10:52:55.488Z,26
2022-08-11T11:09:47.412Z,26.7
2022-08-11T11:15:28.995Z,26.6
2022-08-11T11:21:06.800Z,26.8
2022-08-11T11:26:28.985Z,27.4
2022-08-11T12:06:37.620Z,27.4
2022-08-11T12:11:56.285Z,28.2
2022-08-11T12:34:58.472Z,28.5
2022-08-11T13:54:30.929Z,29.7
2022-08-11T14:00:23.729Z,29.6
2022-08-11T14:45:54.086Z,30.1
2022-08-11T15:08:25.015Z,30.1
2022-08-11T15:14:08.087Z,30
2022-08-11T15:19:54.507Z,30.1
2022-08-11T15:31:11.502Z,30.4
2022-08-11T15:36:45.224Z,29.9
2022-08-11T19:34:18.692Z,23.6
2022-08-11T19:40:00.451Z,23.6
